createdAt,value
2022-12-05T00:00:15.264Z,64.87
2022-12-05T00:03:16.771Z,64.80
2022-12-05T00:06:19.008Z,64.91
2022-12-05T00:09:20.588Z,64.87
2022-12-05T00:12:22.084Z,64.97
2022-12-05T00:15:23.610Z,65.02
2022-12-05T00:18:25.103Z,64.91
2022-12-05T00:21:29.268Z,64.86
2022-12-05T00:24:30.737Z,65.00
2022-12-05T00:27:32.978Z,65.01
2022-12-05T00:30:34.790Z,64.96
2022-12-05T00:33:36.634Z,65.03
2022-12-05T00:36:38.231Z,64.83
2022-12-05T00:39:39.803Z,64.77
2022-12-05T00:42:41.479Z,64.91
2022-12-05T00:45:43.014Z,64.97
2022-12-05T00:48:45.067Z,64.85
2022-12-05T00:51:46.593Z,64.86
2022-12-05T00:54:48.158Z,64.83
2022-12-05T00:57:49.647Z,64.57
2022-12-05T01:00:51.141Z,64.82
2022-12-05T01:03:55.799Z,64.59
2022-12-05T01:06:58.687Z,64.64
2022-12-05T01:10:00.235Z,64.60
2022-12-05T01:13:01.767Z,64.53
2022-12-05T01:16:04.449Z,64.55
2022-12-05T01:19:16.554Z,64.52
2022-12-05T01:22:18.035Z,64.12
2022-12-05T01:25:19.504Z,64.46
2022-12-05T01:28:21.110Z,64.52
2022-12-05T01:31:28.713Z,64.37
2022-12-05T01:34:30.304Z,64.38
2022-12-05T01:37:31.817Z,64.54
2022-12-05T01:40:35.914Z,64.28
2022-12-05T01:44:06.242Z,64.36
2022-12-05T01:47:08.119Z,64.45
2022-12-05T01:50:10.791Z,64.40
2022-12-05T01:53:12.538Z,64.19
2022-12-05T01:56:14.384Z,64.51
2022-12-05T01:59:18.554Z,64.42
2022-12-05T02:02:20.531Z,64.50
2022-12-05T02:05:24.782Z,64.39
2022-12-05T02:08:28.616Z,64.60
2022-12-05T02:11:33.224Z,64.43
2022-12-05T02:14:52.756Z,64.52
2022-12-05T02:18:27.993Z,64.42
2022-12-05T02:21:55.721Z,64.31
2022-12-05T02:25:25.165Z,64.30
2022-12-05T02:28:51.495Z,64.29
2022-12-05T02:32:17.904Z,64.35
2022-12-05T02:35:34.350Z,64.32
2022-12-05T02:38:52.814Z,64.44
2022-12-05T02:42:04.962Z,64.33
2022-12-05T02:45:10.143Z,64.50
2022-12-05T02:48:14.073Z,64.41
2022-12-05T02:51:19.975Z,64.67
2022-12-05T02:54:26.294Z,64.38
2022-12-05T02:57:27.921Z,64.70
2022-12-05T03:00:29.419Z,64.69
2022-12-05T03:03:31.935Z,64.59
2022-12-05T03:06:45.424Z,64.48
2022-12-05T03:09:54.926Z,64.61
2022-12-05T03:13:00.575Z,64.53
2022-12-05T03:16:07.977Z,64.57
2022-12-05T03:19:17.978Z,64.30
2022-12-05T03:22:32.403Z,64.34
2022-12-05T03:25:58.588Z,64.29
2022-12-05T03:29:25.984Z,64.29
2022-12-05T03:32:30.475Z,64.33
2022-12-05T03:35:50.755Z,64.33
2022-12-05T03:39:22.270Z,64.54
2022-12-05T03:42:32.262Z,64.54
2022-12-05T03:45:50.088Z,64.66
2022-12-05T03:49:02.175Z,64.68
2022-12-05T03:52:12.234Z,64.64
2022-12-05T03:55:15.229Z,64.60
2022-12-05T03:58:35.939Z,64.59
2022-12-05T04:01:41.004Z,64.73
2022-12-05T04:04:53.044Z,64.74
2022-12-05T04:08:06.474Z,64.86
2022-12-05T04:11:16.445Z,64.85
2022-12-05T04:14:45.263Z,64.95
2022-12-05T04:18:00.593Z,65.04
2022-12-05T04:21:22.519Z,64.90
2022-12-05T04:24:48.928Z,65.19
2022-12-05T04:28:05.623Z,65.20
2022-12-05T04:31:10.191Z,65.08
2022-12-05T04:34:14.777Z,65.18
2022-12-05T04:37:23.429Z,65.13
2022-12-05T04:40:32.144Z,65.03
2022-12-05T04:43:39.154Z,65.25
2022-12-05T04:46:43.712Z,65.24
2022-12-05T04:49:54.211Z,65.21
2022-12-05T04:52:57.949Z,65.14
2022-12-05T04:56:02.116Z,65.10
2022-12-05T04:59:04.345Z,64.98
2022-12-05T05:02:09.022Z,64.94
2022-12-05T05:05:15.163Z,64.82
2022-12-05T05:08:19.165Z,64.94
2022-12-05T05:11:25.243Z,64.93
2022-12-05T05:14:26.714Z,64.72
2022-12-05T05:17:28.161Z,65.03
2022-12-05T05:20:29.789Z,64.76
2022-12-05T05:23:31.264Z,64.83
2022-12-05T05:26:38.302Z,64.75
2022-12-05T05:29:39.811Z,64.70
2022-12-05T05:32:41.275Z,64.71
2022-12-05T05:35:42.899Z,64.55
2022-12-05T05:38:49.979Z,64.57
2022-12-05T05:41:51.429Z,64.35
2022-12-05T05:44:52.953Z,64.60
2022-12-05T05:47:54.412Z,64.52
2022-12-05T05:50:59.392Z,64.60
2022-12-05T05:54:01.004Z,64.70
2022-12-05T05:57:02.531Z,64.75
2022-12-05T06:00:08.446Z,64.72
2022-12-05T06:03:10.173Z,64.88
2022-12-05T06:06:13.515Z,64.88
2022-12-05T06:09:14.979Z,64.87
2022-12-05T06:12:16.441Z,64.87
2022-12-05T06:15:18.061Z,64.91
2022-12-05T06:18:19.522Z,64.96
2022-12-05T06:21:22.043Z,65.13
2022-12-05T06:24:23.543Z,65.02
2022-12-05T06:27:25.392Z,65.09
2022-12-05T06:30:26.937Z,65.01
2022-12-05T06:33:28.583Z,64.96
2022-12-05T06:36:31.094Z,64.94
2022-12-05T06:39:32.692Z,64.86
2022-12-05T06:42:34.166Z,64.99
2022-12-05T06:45:38.217Z,64.66
2022-12-05T06:48:39.870Z,64.56
2022-12-05T06:51:41.375Z,64.43
2022-12-05T06:54:42.917Z,64.53
2022-12-05T06:57:44.376Z,64.51
2022-12-05T07:01:04.452Z,64.38
2022-12-05T07:04:08.140Z,64.36
2022-12-05T07:07:09.675Z,64.44
2022-12-05T07:10:11.670Z,64.37
2022-12-05T07:13:15.685Z,64.88
2022-12-05T07:16:17.544Z,64.23
2022-12-05T07:19:19.043Z,64.33
2022-12-05T07:22:22.280Z,64.13
2022-12-05T07:25:24.750Z,64.15
2022-12-05T07:28:26.277Z,64.16
2022-12-05T07:31:29.731Z,64.32
2022-12-05T07:34:31.278Z,64.21
2022-12-05T07:37:32.780Z,64.23
2022-12-05T07:40:34.320Z,64.28
2022-12-05T07:43:35.803Z,64.26
2022-12-05T07:46:38.088Z,64.26
2022-12-05T07:49:39.592Z,64.25
2022-12-05T07:52:41.642Z,64.04
2022-12-05T07:55:43.091Z,64.08
2022-12-05T07:58:46.572Z,64.12
2022-12-05T08:01:48.133Z,64.10
2022-12-05T08:04:49.676Z,64.04
2022-12-05T08:07:51.265Z,64.03
2022-12-05T08:10:52.755Z,64.03
2022-12-05T08:13:54.748Z,64.02
2022-12-05T08:16:56.332Z,64.04
2022-12-05T08:19:58.054Z,64.21
2022-12-05T08:22:59.716Z,63.84
2022-12-05T08:26:07.347Z,64.15
2022-12-05T08:29:12.952Z,64.05
2022-12-05T08:32:14.480Z,64.15
2022-12-05T08:35:16.454Z,64.11
2022-12-05T08:38:17.966Z,64.06
2022-12-05T08:41:19.439Z,64.10
2022-12-05T08:44:21.050Z,64.02
2022-12-05T08:47:22.512Z,63.93
2022-12-05T08:50:24.020Z,63.98
2022-12-05T08:53:25.989Z,63.96
2022-12-05T08:56:27.785Z,63.87
2022-12-05T08:59:29.315Z,63.79
2022-12-05T09:02:30.898Z,63.59
2022-12-05T09:05:32.710Z,63.99
2022-12-05T09:08:35.363Z,63.93
2022-12-05T09:11:46.107Z,63.98
2022-12-05T09:14:47.583Z,63.97
2022-12-05T09:17:49.081Z,64.00
2022-12-05T09:20:50.563Z,63.96
2022-12-05T09:23:53.337Z,64.02
2022-12-05T09:26:54.869Z,63.92
2022-12-05T09:29:56.529Z,63.96
2022-12-05T09:32:58.075Z,63.93
2022-12-05T09:36:03.014Z,63.78
2022-12-05T09:39:06.362Z,63.85
2022-12-05T09:42:19.942Z,63.95
2022-12-05T09:45:26.671Z,63.75
2022-12-05T09:48:29.105Z,63.80
2022-12-05T09:51:32.164Z,63.67
2022-12-05T09:54:33.714Z,63.51
2022-12-05T09:57:40.392Z,63.69
2022-12-05T10:00:42.610Z,63.68
2022-12-05T10:03:58.543Z,63.56
2022-12-05T10:07:03.832Z,63.39
2022-12-05T10:10:27.710Z,63.58
2022-12-05T10:13:32.233Z,63.51
2022-12-05T10:16:51.553Z,63.53
2022-12-05T10:19:58.157Z,63.28
2022-12-05T10:23:06.536Z,63.45
2022-12-05T10:26:12.572Z,63.34
2022-12-05T10:29:33.745Z,63.27
2022-12-05T10:32:52.470Z,63.29
2022-12-05T10:35:54.783Z,63.29
2022-12-05T10:38:57.257Z,63.23
2022-12-05T10:41:59.335Z,63.18
2022-12-05T10:45:05.212Z,63.15
2022-12-05T10:48:12.375Z,63.34
2022-12-05T10:51:17.686Z,63.17
2022-12-05T10:54:27.103Z,63.14
2022-12-05T10:57:32.522Z,63.20
2022-12-05T11:00:34.018Z,63.17
2022-12-05T11:03:40.858Z,63.19
2022-12-05T11:06:49.223Z,63.10
2022-12-05T11:09:51.758Z,63.18
2022-12-05T11:12:58.754Z,63.13
2022-12-05T11:16:00.587Z,63.12
2022-12-05T11:19:20.099Z,63.10
2022-12-05T11:22:31.112Z,62.86
2022-12-05T11:25:36.582Z,63.09
2022-12-05T11:28:38.135Z,62.93
2022-12-05T11:31:39.711Z,62.95
2022-12-05T11:34:47.840Z,62.87
2022-12-05T11:37:55.855Z,63.06
2022-12-05T11:41:06.502Z,63.00
2022-12-05T11:44:14.653Z,63.13
2022-12-05T11:47:37.295Z,63.27
2022-12-05T11:51:35.828Z,63.32
2022-12-05T11:55:13.844Z,63.24
2022-12-05T11:58:45.486Z,63.15
2022-12-05T12:02:19.033Z,63.15
2022-12-05T12:05:54.964Z,63.13
2022-12-05T12:09:14.389Z,63.08
2022-12-05T12:12:54.913Z,63.07
2022-12-05T12:16:02.785Z,63.01
2022-12-05T12:19:43.785Z,63.13
2022-12-05T12:23:02.252Z,63.36
2022-12-05T12:26:19.092Z,63.23
2022-12-05T12:29:37.926Z,63.10
2022-12-05T12:33:24.025Z,63.10
2022-12-05T12:36:45.231Z,63.18
2022-12-05T12:40:12.926Z,63.34
2022-12-05T12:47:00.549Z,63.61
2022-12-05T12:50:25.227Z,63.64
2022-12-05T12:53:45.381Z,63.84
2022-12-05T12:56:55.411Z,63.85
2022-12-05T13:00:31.113Z,63.84
2022-12-05T13:03:52.033Z,63.85
2022-12-05T13:07:05.734Z,63.73
2022-12-05T13:10:19.335Z,63.86
2022-12-05T13:13:25.821Z,63.88
2022-12-05T13:16:32.727Z,63.94
2022-12-05T13:19:46.604Z,64.18
2022-12-05T13:22:50.436Z,64.43
2022-12-05T13:25:54.562Z,64.44
2022-12-05T13:29:02.051Z,64.37
2022-12-05T13:32:06.628Z,64.43
2022-12-05T13:35:53.912Z,64.54
2022-12-05T13:39:26.079Z,64.45
2022-12-05T13:42:30.414Z,64.50
2022-12-05T13:45:34.524Z,64.44
2022-12-05T13:48:41.056Z,64.74
2022-12-05T13:51:45.838Z,64.41
2022-12-05T13:55:12.127Z,64.37
2022-12-05T13:58:16.441Z,64.33
2022-12-05T14:01:27.316Z,64.16
2022-12-05T14:04:47.131Z,64.04
2022-12-05T14:07:59.776Z,64.14
2022-12-05T14:11:05.631Z,64.13
2022-12-05T14:14:10.265Z,64.24
2022-12-05T14:17:11.994Z,64.13
2022-12-05T14:20:16.574Z,64.09
2022-12-05T14:23:58.286Z,64.19
2022-12-05T14:27:08.076Z,64.08
2022-12-05T14:30:41.123Z,63.93
2022-12-05T14:33:42.695Z,63.94
2022-12-05T14:36:53.345Z,63.91
2022-12-05T14:40:01.950Z,63.83
2022-12-05T14:43:07.459Z,63.79
2022-12-05T14:46:42.458Z,63.63
2022-12-05T14:50:23.261Z,63.64
2022-12-05T14:53:33.426Z,63.95
2022-12-05T14:56:42.116Z,63.53
2022-12-05T14:59:53.553Z,63.55
2022-12-05T15:02:57.240Z,63.46
2022-12-05T15:06:03.679Z,63.58
2022-12-05T15:09:36.125Z,63.54
2022-12-05T15:12:36.914Z,63.47
2022-12-05T15:15:52.293Z,63.54
2022-12-05T15:18:58.735Z,63.34
2022-12-05T15:22:02.486Z,63.36
2022-12-05T15:25:29.995Z,63.32
2022-12-05T15:28:31.603Z,63.34
2022-12-05T15:31:43.535Z,63.23
2022-12-05T15:35:00.131Z,63.26
2022-12-05T15:38:26.965Z,63.26
2022-12-05T15:41:29.126Z,63.22
2022-12-05T15:44:34.438Z,62.96
2022-12-05T15:47:44.233Z,63.29
2022-12-05T15:50:51.118Z,63.02
2022-12-05T15:54:01.014Z,63.09
2022-12-05T15:57:20.102Z,63.13
2022-12-05T16:00:22.192Z,63.17
2022-12-05T16:03:37.922Z,63.34
2022-12-05T16:06:44.415Z,63.47
2022-12-05T16:09:46.347Z,63.35
2022-12-05T16:12:50.352Z,63.68
2022-12-05T16:15:54.319Z,63.88
2022-12-05T16:18:57.315Z,64.08
2022-12-05T16:22:07.862Z,63.98
2022-12-05T16:25:41.898Z,64.26
2022-12-05T16:28:57.207Z,64.47
2022-12-05T16:32:01.516Z,64.63
2022-12-05T16:35:03.701Z,64.77
2022-12-05T16:38:22.597Z,64.78
2022-12-05T16:41:33.118Z,64.61
2022-12-05T16:44:57.492Z,64.91
2022-12-05T16:47:59.800Z,64.68
2022-12-05T16:51:13.627Z,64.82
2022-12-05T16:54:15.194Z,64.93
2022-12-05T16:57:17.301Z,64.99
2022-12-05T17:00:19.264Z,65.22
2022-12-05T17:03:36.448Z,65.36
2022-12-05T17:06:39.257Z,65.50
2022-12-05T17:09:40.801Z,65.59
2022-12-05T17:12:47.532Z,65.85
2022-12-05T17:15:50.083Z,66.00
2022-12-05T17:18:52.581Z,66.14
2022-12-05T17:21:54.323Z,66.21
2022-12-05T17:24:58.751Z,66.33
2022-12-05T17:28:00.413Z,66.39
2022-12-05T17:31:01.933Z,66.36
2022-12-05T17:34:04.575Z,66.36
2022-12-05T17:37:06.058Z,66.35
2022-12-05T17:40:08.060Z,66.36
2022-12-05T17:43:13.934Z,66.27
2022-12-05T17:46:24.639Z,66.31
2022-12-05T17:49:26.436Z,66.27
2022-12-05T17:52:28.755Z,66.30
2022-12-05T17:55:30.830Z,66.18
2022-12-05T17:58:32.961Z,66.01
2022-12-05T18:01:34.572Z,65.90
2022-12-05T18:04:36.698Z,66.18
2022-12-05T18:07:39.564Z,66.20
2022-12-05T18:10:42.762Z,66.20
2022-12-05T18:13:44.238Z,66.67
2022-12-05T18:16:45.788Z,66.48
2022-12-05T18:19:47.276Z,66.08
2022-12-05T18:22:48.786Z,65.94
2022-12-05T18:26:00.247Z,66.05
2022-12-05T18:29:01.910Z,66.25
2022-12-05T18:32:03.610Z,66.24
2022-12-05T18:35:09.994Z,66.18
2022-12-05T18:38:14.354Z,66.09
2022-12-05T18:41:15.839Z,66.18
2022-12-05T18:44:17.377Z,66.69
2022-12-05T18:47:18.973Z,66.19
2022-12-05T18:50:20.463Z,66.52
2022-12-05T18:53:22.347Z,66.20
2022-12-05T18:56:30.547Z,66.33
2022-12-05T18:59:34.198Z,66.25
2022-12-05T19:02:35.805Z,66.18
2022-12-05T19:05:37.780Z,66.33
2022-12-05T19:08:39.343Z,66.26
2022-12-05T19:11:47.330Z,66.19
2022-12-05T19:14:49.305Z,66.26
2022-12-05T19:17:50.751Z,66.31
2022-12-05T19:20:52.297Z,66.32
2022-12-05T19:23:54.355Z,66.41
2022-12-05T19:26:55.896Z,66.29
2022-12-05T19:29:57.663Z,66.04
2022-12-05T19:32:59.241Z,66.33
2022-12-05T19:36:11.367Z,66.21
2022-12-05T19:39:19.110Z,66.26
2022-12-05T19:42:20.614Z,66.32
2022-12-05T19:45:22.074Z,66.21
2022-12-05T19:48:24.555Z,66.17
2022-12-05T19:51:26.402Z,66.15
2022-12-05T19:54:28.010Z,66.23
2022-12-05T19:57:31.446Z,66.67
2022-12-05T20:00:33.075Z,66.25
2022-12-05T20:03:34.956Z,66.28
2022-12-05T20:06:45.097Z,66.32
2022-12-05T20:09:46.606Z,66.19
2022-12-05T20:12:48.098Z,66.29
2022-12-05T20:15:49.567Z,66.14
2022-12-05T20:18:51.137Z,66.25
2022-12-05T20:21:55.109Z,66.29
2022-12-05T20:24:57.141Z,66.23
2022-12-05T20:27:58.774Z,66.29
2022-12-05T20:31:20.513Z,66.29
2022-12-05T20:34:22.079Z,66.39
2022-12-05T20:37:23.530Z,66.15
2022-12-05T20:40:25.012Z,66.36
2022-12-05T20:43:26.984Z,66.13
2022-12-05T20:46:29.191Z,66.24
2022-12-05T20:49:30.660Z,66.53
2022-12-05T20:52:32.133Z,66.46
2022-12-05T20:55:33.646Z,66.05
2022-12-05T20:58:36.668Z,66.08
2022-12-05T21:01:38.764Z,66.32
2022-12-05T21:04:40.995Z,65.92
2022-12-05T21:07:42.532Z,66.15
2022-12-05T21:10:45.365Z,66.11
2022-12-05T21:13:46.909Z,66.01
2022-12-05T21:16:48.488Z,65.92
2022-12-05T21:19:50.097Z,65.89
2022-12-05T21:22:51.662Z,65.66
2022-12-05T21:25:53.868Z,65.89
2022-12-05T21:28:55.712Z,66.04
2022-12-05T21:31:57.190Z,66.00
2022-12-05T21:34:58.680Z,65.93
2022-12-05T21:38:00.773Z,66.08
2022-12-05T21:41:04.024Z,65.94
2022-12-05T21:44:05.789Z,66.13
2022-12-05T21:47:07.276Z,65.85
2022-12-05T21:50:09.275Z,66.11
2022-12-05T21:53:10.824Z,66.13
2022-12-05T21:56:15.523Z,66.02
2022-12-05T21:59:17.133Z,66.17
2022-12-05T22:02:18.643Z,65.96
2022-12-05T22:05:20.219Z,66.14
2022-12-05T22:08:21.752Z,66.04
2022-12-05T22:11:24.532Z,66.28
2022-12-05T22:14:26.182Z,66.17
2022-12-05T22:17:27.650Z,66.14
2022-12-05T22:20:29.123Z,66.07
2022-12-05T22:23:32.555Z,66.33
2022-12-05T22:26:34.033Z,66.44
2022-12-05T22:29:35.810Z,66.56
2022-12-05T22:32:37.336Z,66.00
2022-12-05T22:35:38.827Z,66.34
2022-12-05T22:38:42.913Z,66.21
2022-12-05T22:41:44.886Z,66.28
2022-12-05T22:44:46.375Z,66.19
2022-12-05T22:47:47.824Z,66.05
2022-12-05T22:50:51.707Z,66.19
2022-12-05T22:53:54.139Z,66.25
2022-12-05T22:56:55.639Z,66.09
2022-12-05T22:59:57.407Z,66.02
2022-12-05T23:02:59.306Z,66.04
2022-12-05T23:06:08.247Z,65.93
2022-12-05T23:09:14.407Z,65.96
2022-12-05T23:12:15.905Z,65.97
2022-12-05T23:15:17.440Z,65.94
2022-12-05T23:18:19.007Z,66.03
2022-12-05T23:21:21.721Z,65.98
2022-12-05T23:24:23.228Z,65.85
2022-12-05T23:27:24.731Z,66.06
2022-12-05T23:30:26.197Z,65.88
2022-12-05T23:33:27.709Z,65.98
2022-12-05T23:36:29.189Z,66.07
2022-12-05T23:39:30.713Z,65.90
2022-12-05T23:42:32.176Z,66.07
2022-12-05T23:45:33.637Z,65.95
2022-12-05T23:48:36.039Z,65.91
2022-12-05T23:51:40.092Z,66.09
2022-12-05T23:54:44.642Z,65.78
2022-12-05T23:57:47.178Z,65.93
